Time;durP1;ratioP1;P1;durP2;ratioP2;P2;SDS_P1;SDS_P2;PMS_P1;PMS_P2;Temp;Humidity;BMP_temperature;BMP_pressure;BME280_temperature;BME280_humidity;BME280_pressure;Samples;Min_cycle;Max_cycle;Signal;HPM_P1;HPM_P2
2021/09/08 00:00:28;;;;;;;11.48;7.72;;;18.40;99.70;;;;;;5056002;28;20035;-89
2021/09/08 00:02:54;;;;;;;13.35;7.40;;;18.30;99.80;;;;;;5056533;28;20397;-89
2021/09/08 00:05:20;;;;;;;11.80;7.95;;;18.30;99.90;;;;;;5056721;28;20025;-89
2021/09/08 00:07:45;;;;;;;12.75;7.90;;;18.30;99.90;;;;;;5074659;28;20032;-89
2021/09/08 00:10:12;;;;;;;15.30;8.48;;;18.20;99.90;;;;;;5055691;28;20397;-88
2021/09/08 00:12:38;;;;;;;11.88;7.97;;;18.20;99.90;;;;;;5074199;28;20054;-88
2021/09/08 00:15:05;;;;;;;12.10;7.70;;;18.20;99.90;;;;;;5056219;28;20029;-87
2021/09/08 00:17:31;;;;;;;13.00;8.40;;;18.20;99.90;;;;;;5056099;28;20039;-88
2021/09/08 00:19:57;;;;;;;12.20;8.15;;;18.10;99.90;;;;;;5056191;28;20029;-88
2021/09/08 00:22:22;;;;;;;12.82;8.38;;;18.10;99.90;;;;;;5056376;28;20028;-88
2021/09/08 00:24:48;;;;;;;12.93;8.00;;;18.10;99.90;;;;;;5056293;28;20031;-88
2021/09/08 00:27:14;;;;;;;13.27;8.43;;;18.00;99.90;;;;;;5056185;28;20531;-87
2021/09/08 00:29:39;;;;;;;13.20;8.70;;;18.00;99.90;;;;;;5074016;28;20024;-88
2021/09/08 00:32:05;;;;;;;12.00;7.93;;;18.00;99.90;;;;;;5056125;28;20469;-88
2021/09/08 00:34:31;;;;;;;13.27;8.45;;;17.90;99.90;;;;;;5056105;28;20032;-88
2021/09/08 00:36:56;;;;;;;13.65;7.78;;;18.00;99.90;;;;;;5056157;28;20031;-88
2021/09/08 00:39:22;;;;;;;13.00;8.60;;;18.00;99.90;;;;;;5055834;28;20028;-88
2021/09/08 00:41:48;;;;;;;13.38;8.23;;;17.90;99.90;;;;;;5073976;28;20032;-87
2021/09/08 00:44:14;;;;;;;13.63;7.88;;;17.90;99.90;;;;;;5055797;28;20028;-87
2021/09/08 00:46:44;;;;;;;12.90;8.40;;;17.90;99.90;;;;;;5055941;28;20063;-88
2021/09/08 00:49:11;;;;;;;13.95;8.40;;;17.80;99.90;;;;;;5055738;28;20112;-88
2021/09/08 00:51:38;;;;;;;13.35;8.15;;;17.80;99.90;;;;;;5073581;28;20480;-88
2021/09/08 00:54:12;;;;;;;13.75;8.25;;;17.80;99.90;;;;;;5073636;28;20067;-87
2021/09/08 00:56:40;;;;;;;14.95;8.55;;;17.80;99.90;;;;;;5055408;28;20520;-88
2021/09/08 00:59:06;;;;;;;14.32;8.30;;;17.70;99.90;;;;;;5054585;28;20036;-89
2021/09/08 01:01:32;;;;;;;13.15;8.27;;;17.70;99.90;;;;;;5055367;28;20029;-89
2021/09/08 01:03:58;;;;;;;15.15;8.38;;;17.70;99.90;;;;;;5055382;28;20610;-88
2021/09/08 01:06:23;;;;;;;14.23;8.73;;;17.70;99.90;;;;;;5055465;28;20044;-89
2021/09/08 01:08:50;;;;;;;12.73;8.98;;;17.70;99.90;;;;;;5055444;28;20111;-89
2021/09/08 01:11:16;;;;;;;12.90;8.55;;;17.70;99.90;;;;;;5055397;28;20025;-87
2021/09/08 01:13:42;;;;;;;14.43;9.02;;;17.70;99.90;;;;;;5054307;28;20431;-87
2021/09/08 01:16:08;;;;;;;13.32;9.30;;;17.70;99.90;;;;;;5055309;28;20025;-88
2021/09/08 01:18:34;;;;;;;15.30;9.32;;;17.70;99.90;;;;;;5072878;28;20051;-87
2021/09/08 01:21:00;;;;;;;15.27;9.30;;;17.70;99.90;;;;;;5054233;28;20512;-87
2021/09/08 01:23:25;;;;;;;14.00;9.02;;;17.70;99.90;;;;;;5054987;28;20119;-89
2021/09/08 01:25:51;;;;;;;14.93;9.43;;;17.70;99.90;;;;;;5055064;28;20099;-89
2021/09/08 01:28:17;;;;;;;14.88;8.77;;;17.70;99.90;;;;;;5054909;28;20020;-89
2021/09/08 01:30:43;;;;;;;16.67;9.38;;;17.70;99.90;;;;;;5054571;28;20030;-89
2021/09/08 01:33:10;;;;;;;15.10;9.27;;;17.70;99.90;;;;;;5054415;28;20028;-89
2021/09/08 01:35:36;;;;;;;13.05;9.10;;;17.60;99.90;;;;;;5054814;28;20443;-89
2021/09/08 01:38:02;;;;;;;17.05;10.35;;;17.60;99.90;;;;;;5054776;28;20042;-89
2021/09/08 01:40:27;;;;;;;14.95;8.90;;;17.60;99.90;;;;;;5054357;28;20070;-89
2021/09/08 01:42:53;;;;;;;14.02;8.77;;;17.60;99.90;;;;;;5072587;28;20048;-89
2021/09/08 01:45:19;;;;;;;14.32;9.82;;;17.60;99.90;;;;;;5054679;28;20025;-89
2021/09/08 01:47:45;;;;;;;14.57;10.07;;;17.60;99.90;;;;;;5054714;28;20107;-89
2021/09/08 01:50:12;;;;;;;14.52;10.32;;;17.60;99.90;;;;;;5054282;28;20024;-89
2021/09/08 01:52:38;;;;;;;15.73;9.75;;;17.60;99.90;;;;;;5054597;28;20051;-89
2021/09/08 01:55:08;;;;;;;15.90;9.50;;;17.60;99.90;;;;;;5072348;28;20035;-89
2021/09/08 01:57:34;;;;;;;15.13;9.43;;;17.60;99.90;;;;;;5054998;28;20420;-89
2021/09/08 02:00:00;;;;;;;18.05;10.43;;;17.60;99.90;;;;;;5054218;28;20115;-89
2021/09/08 02:02:25;;;;;;;17.63;10.63;;;17.50;99.90;;;;;;5054371;28;20107;-89
2021/09/08 02:04:51;;;;;;;15.77;9.68;;;17.50;99.90;;;;;;5054424;28;20051;-90
2021/09/08 02:07:17;;;;;;;16.77;9.93;;;17.50;99.90;;;;;;5054324;28;20021;-88
2021/09/08 02:09:43;;;;;;;15.68;9.73;;;17.50;99.90;;;;;;5054475;28;20503;-88
2021/09/08 02:12:08;;;;;;;16.95;10.50;;;17.50;99.90;;;;;;5072281;28;20099;-87
2021/09/08 02:14:34;;;;;;;17.10;10.00;;;17.50;99.90;;;;;;5054553;28;20507;-88
2021/09/08 02:17:00;;;;;;;14.75;9.32;;;17.50;99.90;;;;;;5054416;28;20017;-87
2021/09/08 02:19:26;;;;;;;15.32;9.90;;;17.40;99.90;;;;;;5054305;28;20025;-87
2021/09/08 02:21:51;;;;;;;15.27;10.05;;;17.40;99.90;;;;;;5054312;28;20047;-88
2021/09/08 02:24:17;;;;;;;14.82;9.95;;;17.40;99.90;;;;;;5053664;28;20485;-88
2021/09/08 02:26:43;;;;;;;14.70;9.52;;;17.40;99.90;;;;;;5071296;28;20021;-88
2021/09/08 02:29:13;;;;;;;16.58;10.25;;;17.40;99.90;;;;;;5071338;28;20074;-87
2021/09/08 02:31:38;;;;;;;15.55;9.60;;;17.40;99.90;;;;;;5072145;28;20029;-88
2021/09/08 02:34:04;;;;;;;16.17;10.15;;;17.40;99.90;;;;;;5054315;28;20465;-88
2021/09/08 02:36:30;;;;;;;14.38;9.95;;;17.40;99.90;;;;;;5072126;28;20024;-88
2021/09/08 02:38:56;;;;;;;15.05;9.68;;;17.40;99.90;;;;;;5053962;28;20036;-87
2021/09/08 02:41:23;;;;;;;16.65;10.55;;;17.30;99.90;;;;;;5053866;28;20032;-88
2021/09/08 02:43:50;;;;;;;15.98;10.32;;;17.30;99.90;;;;;;5072114;28;20016;-87
2021/09/08 02:46:16;;;;;;;14.43;10.18;;;17.30;99.90;;;;;;5054304;28;20158;-87
2021/09/08 02:48:41;;;;;;;17.75;10.93;;;17.30;99.90;;;;;;5054117;28;20136;-87
2021/09/08 02:51:07;;;;;;;16.63;10.95;;;17.30;99.90;;;;;;5071867;28;20082;-88
2021/09/08 02:53:33;;;;;;;17.38;10.82;;;17.30;99.90;;;;;;5053944;28;20036;-87
2021/09/08 02:55:59;;;;;;;17.08;10.20;;;17.20;99.90;;;;;;5054322;28;20573;-87
2021/09/08 02:58:25;;;;;;;17.80;10.43;;;17.20;99.90;;;;;;5053960;28;20032;-88
2021/09/08 03:00:51;;;;;;;13.15;9.27;;;17.30;99.90;;;;;;5071763;28;20098;-88
2021/09/08 03:03:18;;;;;;;15.10;10.00;;;17.30;99.90;;;;;;5054308;28;20020;-88
2021/09/08 03:05:44;;;;;;;16.95;11.45;;;17.20;99.90;;;;;;5054008;28;20027;-88
2021/09/08 03:08:10;;;;;;;16.63;10.50;;;17.20;99.90;;;;;;5071777;28;20504;-88
2021/09/08 03:10:36;;;;;;;15.88;10.40;;;17.20;99.90;;;;;;5053850;28;20029;-88
2021/09/08 03:13:02;;;;;;;14.93;10.25;;;17.20;99.90;;;;;;5071739;28;20021;-87
2021/09/08 03:15:27;;;;;;;18.33;11.18;;;17.20;99.90;;;;;;5053913;28;20025;-87
2021/09/08 03:17:53;;;;;;;17.75;11.07;;;17.20;99.90;;;;;;5053854;28;20024;-88
2021/09/08 03:20:19;;;;;;;15.73;10.48;;;17.20;99.90;;;;;;5071510;28;20020;-87
2021/09/08 03:22:44;;;;;;;16.50;10.95;;;17.20;99.90;;;;;;5053843;28;20507;-88
2021/09/08 03:25:10;;;;;;;16.77;10.70;;;17.30;99.90;;;;;;5053731;28;20028;-88
2021/09/08 03:27:36;;;;;;;18.27;11.05;;;17.20;99.90;;;;;;5071605;28;20024;-87
2021/09/08 03:30:03;;;;;;;17.58;11.05;;;17.20;99.90;;;;;;5053695;28;20059;-88
2021/09/08 03:32:29;;;;;;;15.88;10.45;;;17.20;99.90;;;;;;5053823;28;20549;-88
2021/09/08 03:34:54;;;;;;;18.83;10.98;;;17.20;99.90;;;;;;5053697;28;20064;-88
2021/09/08 03:37:20;;;;;;;17.42;11.38;;;17.10;99.90;;;;;;5056245;28;20024;-88
2021/09/08 03:39:45;;;;;;;17.98;10.80;;;17.10;99.90;;;;;;5056922;28;20047;-88
2021/09/08 03:42:11;;;;;;;15.80;10.77;;;17.10;99.90;;;;;;5057070;28;20024;-88
2021/09/08 03:44:37;;;;;;;16.05;10.45;;;17.10;99.90;;;;;;5056996;28;20074;-87
2021/09/08 03:47:02;;;;;;;14.60;10.18;;;17.10;99.90;;;;;;5057366;28;20052;-87
2021/09/08 03:49:28;;;;;;;18.10;11.07;;;17.10;99.90;;;;;;5056758;28;20021;-87
2021/09/08 03:51:54;;;;;;;17.77;11.02;;;17.10;99.90;;;;;;5057031;28;20031;-88
2021/09/08 03:54:20;;;;;;;17.67;10.45;;;17.10;99.90;;;;;;5056904;28;20078;-87
2021/09/08 03:56:46;;;;;;;17.25;10.75;;;17.10;99.90;;;;;;5074675;28;20033;-88
2021/09/08 03:59:11;;;;;;;15.23;10.75;;;17.10;99.90;;;;;;5056783;28;20020;-88
2021/09/08 04:01:37;;;;;;;17.52;10.98;;;17.10;99.90;;;;;;5056657;28;20020;-87
2021/09/08 04:04:03;;;;;;;17.20;11.20;;;17.10;99.90;;;;;;5074777;28;20268;-87
2021/09/08 04:06:28;;;;;;;17.33;10.50;;;17.10;99.90;;;;;;5056595;28;20078;-87
2021/09/08 04:08:54;;;;;;;16.98;10.98;;;17.00;99.90;;;;;;5056602;28;20392;-87
2021/09/08 04:11:20;;;;;;;16.23;11.07;;;17.10;99.90;;;;;;5056473;28;20051;-88
2021/09/08 04:13:47;;;;;;;16.48;10.80;;;17.00;99.90;;;;;;5057030;28;20033;-87
2021/09/08 04:16:13;;;;;;;15.90;10.50;;;17.00;99.90;;;;;;5056425;28;20075;-87
2021/09/08 04:18:38;;;;;;;17.80;12.27;;;17.00;99.90;;;;;;5056464;28;20021;-87
2021/09/08 04:21:04;;;;;;;19.67;11.73;;;17.00;99.90;;;;;;5074202;28;20075;-88
2021/09/08 04:23:30;;;;;;;19.83;11.45;;;17.00;99.90;;;;;;5056326;28;20115;-88
2021/09/08 04:25:55;;;;;;;19.30;11.75;;;17.00;99.90;;;;;;5056247;28;20546;-87
2021/09/08 04:28:21;;;;;;;18.42;11.35;;;16.90;99.90;;;;;;5074207;28;20063;-88
2021/09/08 04:30:46;;;;;;;23.35;17.17;;;16.90;99.90;;;;;;5056145;28;20056;-87
2021/09/08 04:33:12;;;;;;;22.48;13.90;;;16.90;99.90;;;;;;5074058;28;20384;-88
2021/09/08 04:35:40;;;;;;;19.45;12.93;;;16.90;99.90;;;;;;5074099;28;20040;-87
2021/09/08 04:38:05;;;;;;;18.92;12.52;;;16.90;99.90;;;;;;5056260;28;20055;-87
2021/09/08 04:40:31;;;;;;;17.83;11.38;;;16.80;99.90;;;;;;5055975;28;20064;-88
2021/09/08 04:42:57;;;;;;;20.05;12.40;;;16.80;99.90;;;;;;5056220;28;20025;-88
2021/09/08 04:45:23;;;;;;;15.38;11.23;;;16.80;99.90;;;;;;5056117;28;20077;-88
2021/09/08 04:47:48;;;;;;;22.95;12.40;;;16.80;99.90;;;;;;5055929;28;20108;-87
2021/09/08 04:50:14;;;;;;;18.52;13.20;;;16.70;99.90;;;;;;5055883;28;20032;-87
2021/09/08 04:52:40;;;;;;;20.85;12.88;;;16.70;99.90;;;;;;5056028;28;20028;-87
2021/09/08 04:55:07;;;;;;;18.52;12.38;;;16.70;99.90;;;;;;5055840;28;20032;-86
2021/09/08 04:57:33;;;;;;;20.73;11.55;;;16.70;99.90;;;;;;5073486;28;20097;-86
2021/09/08 04:59:58;;;;;;;19.67;11.88;;;16.70;99.90;;;;;;5055835;28;20532;-87
2021/09/08 05:02:24;;;;;;;20.27;12.27;;;16.60;99.90;;;;;;5055683;28;20030;-87
2021/09/08 05:04:50;;;;;;;18.13;12.00;;;16.60;99.90;;;;;;5055816;28;20032;-87
2021/09/08 05:07:15;;;;;;;20.00;12.18;;;16.60;99.90;;;;;;5073545;28;20516;-87
2021/09/08 05:09:41;;;;;;;18.80;11.93;;;16.60;99.90;;;;;;5055485;28;20024;-87
2021/09/08 05:12:07;;;;;;;19.27;11.93;;;16.60;99.90;;;;;;5055609;28;20032;-87
2021/09/08 05:14:32;;;;;;;20.48;11.23;;;16.60;99.90;;;;;;5055572;28;20215;-87
2021/09/08 05:16:58;;;;;;;18.83;11.57;;;16.50;99.90;;;;;;5055336;28;20393;-87
2021/09/08 05:19:24;;;;;;;20.13;11.07;;;16.60;99.90;;;;;;5055414;28;20712;-87
2021/09/08 05:21:49;;;;;;;21.33;11.90;;;16.60;99.90;;;;;;5055235;28;20024;-87
2021/09/08 05:24:15;;;;;;;19.65;12.18;;;16.50;99.90;;;;;;5055206;28;20027;-87
2021/09/08 05:26:41;;;;;;;20.67;12.02;;;16.50;99.90;;;;;;5055375;28;20047;-87
2021/09/08 05:29:06;;;;;;;20.80;12.40;;;16.60;99.90;;;;;;5056166;28;20064;-87
2021/09/08 05:31:33;;;;;;;17.17;11.73;;;16.60;99.90;;;;;;5055543;28;20504;-88
2021/09/08 05:33:58;;;;;;;20.42;11.48;;;16.60;99.90;;;;;;5055071;28;20031;-88
2021/09/08 05:36:24;;;;;;;20.45;11.20;;;16.60;99.90;;;;;;5055117;28;20021;-87
2021/09/08 05:38:50;;;;;;;21.58;12.13;;;16.60;99.90;;;;;;5054987;28;20024;-87
2021/09/08 05:41:16;;;;;;;22.38;11.40;;;16.70;99.90;;;;;;5055271;28;20037;-88
2021/09/08 05:43:42;;;;;;;18.13;11.50;;;16.70;99.90;;;;;;5055417;28;20021;-88
2021/09/08 05:46:07;;;;;;;18.60;11.60;;;16.70;99.90;;;;;;5054600;28;20473;-88
2021/09/08 05:48:34;;;;;;;19.80;11.13;;;16.70;99.90;;;;;;5055187;28;20549;-89
2021/09/08 05:51:00;;;;;;;18.25;10.40;;;16.80;99.90;;;;;;5054373;28;20025;-88
2021/09/08 05:53:26;;;;;;;16.20;10.82;;;16.80;99.90;;;;;;5054763;28;20029;-88
2021/09/08 05:55:54;;;;;;;15.88;10.77;;;16.80;99.90;;;;;;5072445;28;20028;-88
2021/09/08 05:58:20;;;;;;;20.73;11.52;;;16.90;99.90;;;;;;5054255;28;20032;-89
2021/09/08 06:00:46;;;;;;;19.45;11.70;;;16.80;99.90;;;;;;5053436;28;20032;-88
2021/09/08 06:03:11;;;;;;;19.95;11.52;;;16.90;99.90;;;;;;5054376;28;20473;-88
2021/09/08 06:05:37;;;;;;;17.92;11.57;;;16.90;99.90;;;;;;5054475;28;20469;-88
2021/09/08 06:08:03;;;;;;;19.20;12.00;;;16.90;99.90;;;;;;5054259;28;20028;-88
2021/09/08 06:10:28;;;;;;;18.90;11.10;;;17.00;99.90;;;;;;5053719;28;20037;-89
2021/09/08 06:12:54;;;;;;;17.58;11.10;;;17.00;99.90;;;;;;5072124;28;20025;-88
2021/09/08 06:15:20;;;;;;;17.83;11.02;;;17.00;99.90;;;;;;5054246;28;20028;-88
2021/09/08 06:17:46;;;;;;;20.73;11.75;;;17.10;99.90;;;;;;5054298;28;20115;-90
2021/09/08 06:20:13;;;;;;;19.25;11.05;;;17.10;99.90;;;;;;5054067;28;20071;-90
2021/09/08 06:22:39;;;;;;;17.85;11.18;;;17.10;99.90;;;;;;5054276;28;20203;-90
2021/09/08 06:25:05;;;;;;;17.55;11.73;;;17.20;99.90;;;;;;5054269;28;20106;-90
2021/09/08 06:27:31;;;;;;;17.25;11.10;;;17.20;99.90;;;;;;5054255;28;20053;-90
2021/09/08 06:29:57;;;;;;;18.70;11.65;;;17.20;99.90;;;;;;5053961;28;20025;-90
2021/09/08 06:32:22;;;;;;;21.40;11.77;;;17.30;99.90;;;;;;5054034;28;20028;-90
2021/09/08 06:34:48;;;;;;;18.15;11.43;;;17.30;99.90;;;;;;5054163;28;20024;-90
2021/09/08 06:37:15;;;;;;;17.75;11.25;;;17.40;99.90;;;;;;5054051;28;20025;-90
2021/09/08 06:39:41;;;;;;;22.15;12.88;;;17.40;99.90;;;;;;5053912;28;20110;-90
2021/09/08 06:42:07;;;;;;;20.98;12.70;;;17.40;99.90;;;;;;5054004;28;20116;-90
2021/09/08 06:44:32;;;;;;;22.60;12.20;;;17.50;99.90;;;;;;5072154;28;20385;-90
2021/09/08 06:46:58;;;;;;;16.83;11.02;;;17.50;99.90;;;;;;5053911;28;20016;-90
2021/09/08 06:49:24;;;;;;;21.23;11.73;;;17.60;99.90;;;;;;5054092;28;20025;-89
2021/09/08 06:51:50;;;;;;;16.30;10.65;;;17.70;99.90;;;;;;5072695;28;20025;-89
2021/09/08 06:54:16;;;;;;;18.02;11.20;;;17.70;99.90;;;;;;5054666;28;20024;-90
2021/09/08 06:56:42;;;;;;;19.60;11.80;;;17.80;99.90;;;;;;5073320;28;20051;-90
2021/09/08 06:59:08;;;;;;;18.92;11.57;;;17.80;99.90;;;;;;5054652;28;20119;-90
2021/09/08 07:01:33;;;;;;;18.75;12.73;;;17.90;99.90;;;;;;5072930;28;20112;-89
2021/09/08 07:03:59;;;;;;;20.30;12.35;;;17.90;99.90;;;;;;5055385;28;20020;-89
2021/09/08 07:06:25;;;;;;;19.20;11.45;;;18.00;99.90;;;;;;5072621;28;20054;-90
2021/09/08 07:08:51;;;;;;;17.55;11.38;;;18.00;99.90;;;;;;5053743;28;20067;-90
2021/09/08 07:11:18;;;;;;;20.58;11.70;;;18.10;99.90;;;;;;5074279;28;20044;-90
2021/09/08 07:13:44;;;;;;;17.30;10.98;;;18.10;99.90;;;;;;5057547;28;20033;-90
2021/09/08 07:16:10;;;;;;;17.25;10.75;;;18.10;99.90;;;;;;5057409;28;20481;-90
2021/09/08 07:18:36;;;;;;;15.25;10.45;;;18.20;99.90;;;;;;5057809;28;20032;-90
2021/09/08 07:21:03;;;;;;;15.93;10.07;;;18.20;99.90;;;;;;5057550;28;20386;-90
2021/09/08 07:23:29;;;;;;;15.27;10.45;;;18.30;99.90;;;;;;5058352;28;20048;-89
2021/09/08 07:25:54;;;;;;;18.27;11.65;;;18.30;99.90;;;;;;5058617;28;20078;-90
2021/09/08 07:28:20;;;;;;;15.70;10.38;;;18.30;99.90;;;;;;5057982;28;20522;-90
2021/09/08 07:30:46;;;;;;;15.55;9.82;;;18.40;99.90;;;;;;5057635;28;20056;-90
2021/09/08 07:33:12;;;;;;;14.07;9.48;;;18.40;99.90;;;;;;5057935;28;20404;-91
2021/09/08 07:35:38;;;;;;;18.30;12.27;;;18.40;99.90;;;;;;5057943;28;20050;-90
2021/09/08 07:38:04;;;;;;;19.23;11.10;;;18.50;99.90;;;;;;5075962;28;20095;-90
2021/09/08 07:40:30;;;;;;;16.13;11.25;;;18.50;99.90;;;;;;5056901;28;20032;-90
2021/09/08 07:42:55;;;;;;;19.73;10.80;;;18.50;99.90;;;;;;5057703;28;20481;-90
2021/09/08 07:45:21;;;;;;;16.33;10.90;;;18.60;99.90;;;;;;5056954;28;20021;-90
2021/09/08 07:47:47;;;;;;;17.70;11.27;;;18.60;99.90;;;;;;5074859;28;20028;-91
2021/09/08 07:50:12;;;;;;;14.27;10.25;;;18.60;99.90;;;;;;5056586;28;20025;-90
2021/09/08 07:52:38;;;;;;;16.77;10.77;;;18.70;99.90;;;;;;5056894;28;20024;-90
2021/09/08 07:55:05;;;;;;;14.32;10.40;;;18.70;99.90;;;;;;5056841;28;20024;-90
2021/09/08 07:57:30;;;;;;;13.63;9.70;;;18.60;99.90;;;;;;5056764;28;20327;-90
2021/09/08 07:59:56;;;;;;;16.27;11.50;;;18.70;99.90;;;;;;5056123;28;20054;-89
2021/09/08 08:02:22;;;;;;;20.35;12.40;;;18.70;99.90;;;;;;5056525;28;20147;-89
2021/09/08 08:04:47;;;;;;;17.85;11.68;;;18.80;99.90;;;;;;5056479;28;20017;-90
2021/09/08 08:07:13;;;;;;;19.30;11.35;;;18.80;99.90;;;;;;5056458;28;20024;-90
2021/09/08 08:09:42;;;;;;;15.10;10.52;;;18.80;99.90;;;;;;5073908;28;20040;-90
2021/09/08 08:12:11;;;;;;;15.32;10.85;;;18.80;99.90;;;;;;5056445;28;20031;-89
2021/09/08 08:14:37;;;;;;;16.67;10.75;;;18.80;99.90;;;;;;5056364;28;20024;-89
2021/09/08 08:17:04;;;;;;;14.20;10.10;;;18.80;99.90;;;;;;5056251;28;20111;-90
2021/09/08 08:19:29;;;;;;;13.23;9.77;;;18.80;99.90;;;;;;5055731;28;20032;-90
2021/09/08 08:21:55;;;;;;;13.43;9.88;;;18.80;99.90;;;;;;5055489;28;20025;-90
2021/09/08 08:24:20;;;;;;;14.57;9.75;;;18.90;99.90;;;;;;5074175;28;20031;-90
2021/09/08 08:26:46;;;;;;;14.40;10.50;;;19.10;99.90;;;;;;5056327;28;20021;-90
2021/09/08 08:29:12;;;;;;;14.40;10.38;;;19.10;99.90;;;;;;5056064;28;20112;-90
2021/09/08 08:31:37;;;;;;;12.85;9.13;;;19.20;99.90;;;;;;5055980;28;20021;-90
2021/09/08 08:34:03;;;;;;;13.68;9.77;;;19.20;99.90;;;;;;5073842;28;20508;-90
2021/09/08 08:36:29;;;;;;;14.93;9.77;;;19.30;99.90;;;;;;5055895;28;20024;-90
2021/09/08 08:38:55;;;;;;;12.70;9.40;;;19.30;99.90;;;;;;5055829;28;20671;-90
2021/09/08 08:41:23;;;;;;;14.00;9.35;;;19.30;99.90;;;;;;5055744;28;20028;-90
2021/09/08 08:43:49;;;;;;;11.57;8.93;;;19.30;99.90;;;;;;5055871;28;20069;-90
2021/09/08 08:46:15;;;;;;;16.15;9.95;;;19.30;99.90;;;;;;5055623;28;20043;-90
2021/09/08 08:48:41;;;;;;;16.52;11.10;;;19.40;99.90;;;;;;5055674;28;20382;-90
2021/09/08 08:51:08;;;;;;;13.75;9.98;;;19.50;99.90;;;;;;5073618;28;20033;-90
2021/09/08 08:53:33;;;;;;;15.30;10.75;;;19.60;99.90;;;;;;5055940;28;20032;-90
2021/09/08 08:55:59;;;;;;;13.38;10.32;;;19.70;99.90;;;;;;5055563;28;20020;-90
2021/09/08 08:58:25;;;;;;;13.38;9.93;;;19.70;99.90;;;;;;5073437;28;20507;-90
2021/09/08 09:01:16;;;;;;;12.70;9.25;;;19.80;99.90;;;;;;5055279;28;20028;-91
2021/09/08 09:03:42;;;;;;;14.60;9.93;;;19.70;99.90;;;;;;5055377;28;20312;-90
2021/09/08 09:06:08;;;;;;;15.10;10.73;;;19.80;99.90;;;;;;5055250;28;20031;-90
2021/09/08 09:08:34;;;;;;;15.50;10.48;;;19.90;99.90;;;;;;5073214;28;20031;-90
2021/09/08 09:11:01;;;;;;;14.85;10.35;;;20.00;99.90;;;;;;5054985;28;20598;-90
2021/09/08 09:13:35;;;;;;;13.70;10.13;;;20.00;99.90;;;;;;5073111;28;20103;-90
2021/09/08 09:16:08;;;;;;;16.27;10.40;;;20.00;99.90;;;;;;5073140;28;20028;-90
2021/09/08 09:18:45;;;;;;;13.80;9.95;;;20.10;99.90;;;;;;5055238;28;20056;-90
2021/09/08 09:21:12;;;;;;;14.23;10.00;;;20.10;99.90;;;;;;5054688;28;20595;-90
2021/09/08 09:23:59;;;;;;;12.48;9.38;;;20.10;99.90;;;;;;5055228;28;20393;-90
2021/09/08 09:26:41;;;;;;;14.65;10.20;;;20.10;99.90;;;;;;5054950;28;20259;-90
2021/09/08 09:29:18;;;;;;;13.65;10.05;;;20.10;99.90;;;;;;5054730;28;20481;-90
2021/09/08 09:31:56;;;;;;;14.27;9.98;;;20.20;99.90;;;;;;5054836;28;20393;-91
2021/09/08 09:34:23;;;;;;;15.45;10.02;;;20.20;99.90;;;;;;5053900;28;20062;-90
2021/09/08 09:36:53;;;;;;;14.65;9.93;;;20.10;99.90;;;;;;5054977;28;20039;-90
2021/09/08 09:39:21;;;;;;;12.50;9.50;;;20.10;99.90;;;;;;5054680;28;20021;-90
2021/09/08 09:41:49;;;;;;;13.23;9.27;;;20.10;99.90;;;;;;5054872;28;20412;-90
2021/09/08 09:44:15;;;;;;;15.23;10.63;;;20.10;99.90;;;;;;5054666;28;20021;-90
2021/09/08 09:46:42;;;;;;;21.23;13.70;;;20.20;99.90;;;;;;5072589;28;20047;-90
2021/09/08 09:49:09;;;;;;;15.60;10.90;;;20.30;99.60;;;;;;5054514;28;20024;-90
2021/09/08 09:51:35;;;;;;;12.10;9.75;;;20.40;99.20;;;;;;5054700;28;20032;-90
2021/09/08 09:54:01;;;;;;;14.15;10.30;;;20.40;98.90;;;;;;5073090;28;20053;-90
2021/09/08 09:56:26;;;;;;;15.98;10.50;;;20.50;99.10;;;;;;5054625;28;20060;-88
2021/09/08 09:58:52;;;;;;;14.77;10.75;;;20.50;98.80;;;;;;5054675;28;20078;-89
2021/09/08 10:01:19;;;;;;;15.35;10.13;;;20.60;98.60;;;;;;5054309;28;20020;-88
2021/09/08 10:03:45;;;;;;;16.58;10.70;;;20.70;98.40;;;;;;5054460;28;20027;-88
2021/09/08 10:06:11;;;;;;;14.13;9.77;;;20.70;98.20;;;;;;5072379;28;20469;-88
2021/09/08 10:08:50;;;;;;;13.60;9.68;;;20.80;98.10;;;;;;5054501;28;20024;-88
2021/09/08 10:11:26;;;;;;;13.52;9.70;;;20.70;97.90;;;;;;5072951;28;20496;-88
2021/09/08 10:13:59;;;;;;;14.88;9.18;;;20.70;98.00;;;;;;5037838;28;20076;-88
2021/09/08 10:16:27;;;;;;;12.57;9.98;;;20.70;98.20;;;;;;5054584;28;20530;-89
2021/09/08 10:18:53;;;;;;;12.57;8.80;;;20.80;98.00;;;;;;5054303;28;20032;-88
2021/09/08 10:21:20;;;;;;;12.40;8.95;;;20.80;97.60;;;;;;5054105;28;20278;-88
2021/09/08 10:23:55;;;;;;;12.50;9.23;;;20.80;97.40;;;;;;5072367;28;20029;-89
2021/09/08 10:26:28;;;;;;;10.75;8.10;;;20.80;97.20;;;;;;5054407;28;20104;-88
2021/09/08 10:28:57;;;;;;;11.68;8.18;;;20.80;97.20;;;;;;5054239;28;20139;-88
2021/09/08 10:31:23;;;;;;;12.50;7.90;;;20.80;97.30;;;;;;5054152;28;20099;-89
2021/09/08 10:33:56;;;;;;;12.75;8.55;;;20.80;97.00;;;;;;5054157;28;20044;-88
2021/09/08 10:36:22;;;;;;;13.40;8.85;;;21.00;97.10;;;;;;5054115;28;20024;-88
2021/09/08 10:39:06;;;;;;;12.95;8.52;;;21.00;96.70;;;;;;5072033;28;20078;-88
2021/09/08 10:41:51;;;;;;;14.05;8.35;;;21.10;96.40;;;;;;5054881;28;20116;-88
2021/09/08 10:44:20;;;;;;;11.57;8.43;;;21.20;96.00;;;;;;5054242;28;20016;-88
2021/09/08 10:46:48;;;;;;;10.75;7.90;;;21.20;95.80;;;;;;5057927;28;20548;-88
2021/09/08 10:49:39;;;;;;;10.68;8.65;;;21.20;95.60;;;;;;5076023;28;20029;-88
2021/09/08 10:52:32;;;;;;;11.63;8.20;;;21.10;95.40;;;;;;5075859;28;20069;-88
2021/09/08 10:54:57;;;;;;;12.82;8.43;;;21.00;95.90;;;;;;5075578;28;20029;-88
2021/09/08 10:57:42;;;;;;;12.55;8.65;;;21.10;95.70;;;;;;5058118;28;20500;-88
2021/09/08 11:00:09;;;;;;;13.25;8.68;;;21.20;95.30;;;;;;5057864;28;20024;-89
2021/09/08 11:02:41;;;;;;;10.70;8.23;;;21.40;94.70;;;;;;5058624;28;20056;-88
2021/09/08 11:05:09;;;;;;;11.43;8.45;;;21.50;94.40;;;;;;5058072;28;20029;-88
2021/09/08 11:07:41;;;;;;;10.50;7.88;;;21.50;94.60;;;;;;5057925;28;20016;-88
2021/09/08 11:10:09;;;;;;;12.90;8.20;;;21.50;94.50;;;;;;5057782;28;20032;-89
2021/09/08 11:12:48;;;;;;;13.35;8.02;;;21.60;94.10;;;;;;5058092;28;20047;-88
2021/09/08 11:15:14;;;;;;;;;;;21.70;93.70;;;;;;5074824;28;20048;-88
2021/09/08 11:17:40;;;;;;;13.43;8.77;;;21.80;93.30;;;;;;5075721;28;20327;-87
2021/09/08 11:20:08;;;;;;;10.60;7.88;;;21.80;93.50;;;;;;5057558;28;20078;-88
2021/09/08 11:22:34;;;;;;;9.57;7.63;;;21.90;93.20;;;;;;5057736;28;20025;-88
2021/09/08 11:25:11;;;;;;;10.50;7.90;;;21.90;93.20;;;;;;5057507;28;20546;-89
2021/09/08 11:27:38;;;;;;;12.30;8.73;;;21.90;93.70;;;;;;5075356;28;20066;-88
2021/09/08 11:30:11;;;;;;;10.02;7.75;;;21.90;93.50;;;;;;5057467;28;20053;-88
2021/09/08 11:32:58;;;;;;;10.93;8.07;;;21.70;94.00;;;;;;5057431;28;20016;-88
2021/09/08 11:35:40;;;;;;;11.05;8.27;;;21.60;94.00;;;;;;5057354;28;20169;-88
2021/09/08 11:38:25;;;;;;;10.38;7.90;;;21.60;94.00;;;;;;5075203;28;20020;-88
2021/09/08 11:41:03;;;;;;;10.45;8.15;;;21.70;93.70;;;;;;5057858;28;20534;-90
2021/09/08 11:43:33;;;;;;;10.77;8.23;;;21.70;93.50;;;;;;5057523;28;20025;-90
2021/09/08 11:46:12;;;;;;;14.43;8.68;;;21.90;93.20;;;;;;5075149;28;20024;-90
2021/09/08 11:48:38;;;;;;;10.27;7.70;;;22.00;92.90;;;;;;5075200;28;20049;-90
2021/09/08 11:51:06;;;;;;;11.10;8.13;;;22.10;92.70;;;;;;5075252;28;20063;-90
2021/09/08 11:53:32;;;;;;;11.43;8.10;;;22.10;92.50;;;;;;5057189;28;20057;-89
2021/09/08 11:56:16;;;;;;;13.07;8.00;;;22.20;92.40;;;;;;5056746;28;20047;-90
2021/09/08 11:58:44;;;;;;;11.40;8.77;;;22.30;91.90;;;;;;5056537;28;20078;-90
2021/09/08 12:01:12;;;;;;;10.98;7.75;;;22.50;91.60;;;;;;5057002;28;20458;-89
2021/09/08 12:03:43;;;;;;;11.00;7.82;;;22.50;91.50;;;;;;5057154;28;20031;-90
2021/09/08 12:06:11;;;;;;;12.15;8.30;;;22.40;91.70;;;;;;5074773;28;20481;-90
2021/09/08 12:08:37;;;;;;;12.95;8.75;;;22.50;91.50;;;;;;5056820;28;20115;-90
2021/09/08 12:11:04;;;;;;;11.48;9.00;;;22.60;91.40;;;;;;5056533;28;20028;-90
2021/09/08 12:13:33;;;;;;;12.30;8.75;;;22.60;91.00;;;;;;5056841;28;20029;-90
2021/09/08 12:15:59;;;;;;;11.63;8.73;;;22.50;91.20;;;;;;5074615;28;20023;-90
2021/09/08 12:18:25;;;;;;;13.23;8.43;;;22.40;91.60;;;;;;5074497;28;20389;-90
2021/09/08 12:20:51;;;;;;;13.98;8.35;;;22.20;92.10;;;;;;5056619;28;20020;-90
2021/09/08 12:23:32;;;;;;;12.20;8.77;;;22.20;91.80;;;;;;5056760;28;20048;-90
2021/09/08 12:26:11;;;;;;;11.70;8.48;;;22.20;91.70;;;;;;5056617;28;20021;-90
2021/09/08 12:28:47;;;;;;;10.63;8.20;;;22.20;91.70;;;;;;5074468;28;20481;-91
2021/09/08 12:31:15;;;;;;;13.73;9.10;;;22.20;91.80;;;;;;5056655;28;20035;-90